Time;durP1;ratioP1;P1;durP2;ratioP2;P2;SDS_P1;SDS_P2;PMS_P1;PMS_P2;Temp;Humidity;BMP_temperature;BMP_pressure;BME280_temperature;BME280_humidity;BME280_pressure;Samples;Min_cycle;Max_cycle;Signal;HPM_P1;HPM_P2
2022/03/06 00:01:23;;;;;;;14.90;11.40;;;3.70;99.90;;;3.52;73.44;94604.38;4990432;28;20494;-64
2022/03/06 00:03:50;;;;;;;13.13;10.30;;;3.70;99.90;;;3.48;72.96;94594.28;4989627;28;20975;-57
2022/03/06 00:06:18;;;;;;;13.43;10.57;;;3.70;99.90;;;3.44;74.02;94604.06;4993166;28;20499;-61
2022/03/06 00:08:45;;;;;;;14.13;11.00;;;3.70;99.90;;;3.39;74.11;94600.91;5007231;28;20458;-63
2022/03/06 00:11:12;;;;;;;10.53;9.40;;;3.60;99.90;;;3.38;73.89;94594.06;5006322;28;20465;-63
2022/03/06 00:13:41;;;;;;;11.10;9.80;;;3.60;99.90;;;3.37;74.24;94602.78;5004035;28;21022;-54
2022/03/06 00:16:08;;;;;;;13.63;10.43;;;3.60;99.90;;;3.34;73.89;94593.44;4996057;28;20474;-61
2022/03/06 00:18:37;;;;;;;13.27;9.93;;;3.50;99.90;;;3.32;75.24;94589.28;4999672;28;20465;-54
2022/03/06 00:21:04;;;;;;;15.60;10.67;;;3.50;99.90;;;3.29;74.19;94585.13;5002679;28;20465;-56
2022/03/06 00:23:31;;;;;;;10.70;9.70;;;3.50;99.90;;;3.31;74.12;94592.81;4998783;28;20459;-57
2022/03/06 00:25:59;;;;;;;11.47;9.23;;;3.50;99.90;;;3.31;74.93;94595.41;4997108;28;20573;-55
2022/03/06 00:28:26;;;;;;;9.93;8.90;;;3.50;99.90;;;3.30;74.65;94586.78;4997427;28;20457;-56
2022/03/06 00:30:55;;;;;;;9.60;8.70;;;3.50;99.90;;;3.29;74.26;94597.28;5001651;28;20485;-57
2022/03/06 00:33:22;;;;;;;9.93;8.83;;;3.50;99.90;;;3.27;74.42;94584.41;4999352;28;20525;-55
2022/03/06 00:35:49;;;;;;;9.90;8.63;;;3.50;99.90;;;3.27;74.14;94583.53;4996961;28;20492;-55
2022/03/06 00:38:17;;;;;;;8.73;6.93;;;3.50;99.90;;;3.25;73.51;94582.81;4994405;28;20464;-53
2022/03/06 00:40:45;;;;;;;8.40;6.70;;;3.40;99.90;;;3.23;74.71;94586.34;4995975;28;20551;-56
2022/03/06 00:43:13;;;;;;;8.20;7.40;;;3.50;99.90;;;3.26;73.63;94580.13;4994319;28;20453;-63
2022/03/06 00:45:40;;;;;;;7.63;6.80;;;3.50;99.90;;;3.23;74.13;94570.75;4991429;28;20537;-62
2022/03/06 00:48:09;;;;;;;7.93;6.03;;;3.50;99.90;;;3.21;74.23;94577.00;4994089;28;20466;-60
2022/03/06 00:50:36;;;;;;;7.10;6.50;;;3.40;99.90;;;3.18;74.74;94569.41;4992675;28;20921;-55
2022/03/06 00:53:05;;;;;;;6.23;5.77;;;3.40;99.90;;;3.14;74.29;94580.94;4989940;28;20451;-55
2022/03/06 00:55:32;;;;;;;6.57;5.97;;;3.40;99.90;;;3.07;74.10;94559.75;4992251;28;20470;-62
2022/03/06 00:58:05;;;;;;;6.50;6.00;;;3.30;99.90;;;3.02;75.48;94572.19;4996634;28;20464;-61
2022/03/06 01:00:35;;;;;;;6.23;5.67;;;3.20;99.90;;;2.98;74.76;94571.56;4994136;28;20499;-62
2022/03/06 01:03:04;;;;;;;6.97;6.37;;;3.20;99.90;;;2.96;74.71;94570.00;5002241;28;20537;-61
2022/03/06 01:05:32;;;;;;;7.33;6.60;;;3.20;99.90;;;2.92;74.99;94565.94;4997523;28;20576;-57
2022/03/06 01:08:00;;;;;;;6.60;6.00;;;3.20;99.90;;;2.91;74.52;94553.88;5002297;28;20465;-59
2022/03/06 01:10:27;;;;;;;7.20;6.47;;;3.10;99.90;;;2.89;75.23;94555.75;5002133;28;20543;-60
2022/03/06 01:12:54;;;;;;;7.10;6.50;;;3.10;99.90;;;2.85;75.52;94542.97;4996604;28;20455;-62
2022/03/06 01:15:22;;;;;;;7.50;6.70;;;3.10;99.90;;;2.83;75.66;94552.63;4992667;28;20453;-62
2022/03/06 01:17:49;;;;;;;8.90;7.07;;;3.10;99.90;;;2.83;74.88;94552.63;4995848;28;20457;-55
2022/03/06 01:20:19;;;;;;;6.53;5.93;;;3.00;99.90;;;2.81;74.64;94559.69;4994911;28;20454;-61
2022/03/06 01:22:48;;;;;;;7.83;7.10;;;3.10;99.90;;;2.82;74.71;94561.34;4995958;28;20606;-61
2022/03/06 01:25:15;;;;;;;8.33;7.30;;;3.10;99.90;;;2.83;76.18;94557.81;4993754;28;20998;-62
2022/03/06 01:27:43;;;;;;;7.90;6.67;;;3.00;99.90;;;2.84;76.12;94545.69;4996486;28;20561;-62
2022/03/06 01:30:12;;;;;;;7.70;6.90;;;3.10;99.90;;;2.86;75.54;94557.59;4997379;28;20875;-56
2022/03/06 01:32:39;;;;;;;7.87;7.07;;;3.10;99.90;;;2.88;75.68;94557.50;4994320;28;20483;-56
2022/03/06 01:35:08;;;;;;;10.17;7.80;;;3.10;99.90;;;2.90;75.19;94542.66;4991571;28;20482;-54
2022/03/06 01:37:35;;;;;;;8.10;7.10;;;3.10;99.90;;;2.92;74.96;94545.16;4994428;28;20458;-63
2022/03/06 01:40:05;;;;;;;8.73;7.83;;;3.10;99.90;;;2.92;75.60;94542.56;4988734;28;20457;-57
2022/03/06 01:42:32;;;;;;;7.33;6.60;;;3.10;99.90;;;2.94;76.17;94538.91;4991229;28;20487;-61
2022/03/06 01:44:59;;;;;;;8.27;7.37;;;3.10;99.90;;;2.96;75.40;94538.81;4987129;28;20476;-54
2022/03/06 01:47:34;;;;;;;8.60;7.80;;;3.20;99.90;;;2.97;74.71;94533.53;4990214;28;20466;-62
2022/03/06 01:50:02;;;;;;;9.90;8.70;;;3.20;99.90;;;3.01;75.02;94541.97;5000463;28;20464;-63
2022/03/06 01:52:29;;;;;;;9.93;8.80;;;3.20;99.90;;;3.02;74.67;94525.41;4999609;28;20481;-56
2022/03/06 01:54:57;;;;;;;10.97;8.07;;;3.20;99.90;;;3.01;74.89;94524.59;4994291;28;20458;-62
2022/03/06 01:57:25;;;;;;;11.37;8.47;;;3.20;99.90;;;3.01;75.34;94513.38;4999138;28;21029;-63
2022/03/06 01:59:53;;;;;;;14.47;9.67;;;3.20;99.90;;;3.02;75.19;94523.66;4993978;28;20858;-61
2022/03/06 02:02:20;;;;;;;9.67;8.00;;;3.30;99.90;;;3.04;74.78;94519.19;5000531;28;20503;-62
2022/03/06 02:04:47;;;;;;;8.67;7.77;;;3.30;99.90;;;3.04;75.42;94511.41;4999150;28;20457;-60
2022/03/06 02:07:15;;;;;;;8.50;7.63;;;3.30;99.90;;;3.04;75.36;94514.00;4997743;28;20564;-57
2022/03/06 02:09:42;;;;;;;9.00;8.10;;;3.30;99.90;;;3.06;74.88;94511.31;4990184;28;20470;-61
2022/03/06 02:12:25;;;;;;;10.60;9.30;;;3.30;99.90;;;3.08;75.21;94511.19;4993111;28;20471;-61
2022/03/06 02:14:54;;;;;;;9.20;7.77;;;3.30;99.90;;;3.08;75.09;94508.59;4993989;28;20463;-61
2022/03/06 02:17:21;;;;;;;10.80;8.63;;;3.30;99.90;;;3.10;75.79;94515.38;4989041;28;20906;-61
2022/03/06 02:19:55;;;;;;;11.80;8.07;;;3.30;99.90;;;3.10;74.81;94506.72;4992956;28;20974;-53
2022/03/06 02:22:25;;;;;;;10.40;8.90;;;3.30;99.90;;;3.13;75.12;94516.91;4990475;28;20566;-62
2022/03/06 02:24:52;;;;;;;9.87;8.87;;;3.30;99.90;;;3.14;75.21;94516.81;4989285;28;20465;-65
2022/03/06 02:27:19;;;;;;;11.70;9.70;;;3.30;99.90;;;3.15;74.29;94515.06;4987711;28;20497;-62
2022/03/06 02:29:47;;;;;;;9.40;8.37;;;3.40;99.90;;;3.14;74.77;94506.41;4987738;28;20876;-61
2022/03/06 02:32:19;;;;;;;8.40;7.60;;;3.40;99.90;;;3.14;74.44;94508.19;4992041;28;20478;-62
2022/03/06 02:34:47;;;;;;;10.23;8.20;;;3.30;99.90;;;3.14;75.15;94497.78;4991348;28;20458;-56
2022/03/06 02:37:16;;;;;;;12.97;8.97;;;3.30;99.90;;;3.13;74.99;94504.75;4990202;28;20582;-61
2022/03/06 02:39:45;;;;;;;9.27;8.47;;;3.30;99.90;;;3.13;74.01;94506.50;4987013;28;20450;-55
2022/03/06 02:42:23;;;;;;;9.47;8.47;;;3.30;99.90;;;3.12;74.41;94513.47;5000588;28;20477;-55
2022/03/06 02:44:50;;;;;;;8.93;8.13;;;3.30;99.90;;;3.10;74.90;94509.31;4996422;28;20457;-61
2022/03/06 02:47:17;;;;;;;8.33;7.53;;;3.30;99.90;;;3.08;74.66;94519.81;4998410;28;20501;-61
2022/03/06 02:49:44;;;;;;;8.57;7.70;;;3.30;99.90;;;3.07;75.19;94506.94;5001991;28;20540;-55
2022/03/06 02:52:12;;;;;;;8.37;7.57;;;3.30;99.90;;;3.03;74.26;94514.09;5000676;28;20910;-62
2022/03/06 02:54:39;;;;;;;10.40;7.70;;;3.30;99.90;;;3.02;74.38;94521.06;4991451;28;20508;-56
2022/03/06 02:57:08;;;;;;;8.90;7.97;;;3.20;99.90;;;3.02;75.36;94521.06;4993916;28;20859;-63
2022/03/06 02:59:35;;;;;;;9.23;8.30;;;3.30;99.90;;;3.02;74.38;94510.69;4992582;28;20447;-56
2022/03/06 03:02:03;;;;;;;10.00;8.17;;;3.30;99.90;;;3.04;75.59;94533.97;4995424;28;20479;-54
2022/03/06 03:04:30;;;;;;;9.37;8.30;;;3.30;99.90;;;3.02;75.17;94521.06;4990237;28;20446;-61
2022/03/06 03:06:57;;;;;;;9.27;8.30;;;3.30;99.90;;;3.01;73.85;94509.00;4995987;28;20489;-62
2022/03/06 03:09:25;;;;;;;10.10;8.10;;;3.20;99.90;;;3.00;75.40;94537.69;4992395;28;20451;-56
2022/03/06 03:11:54;;;;;;;8.40;7.70;;;3.30;99.90;;;2.98;74.83;94535.19;4993650;28;20477;-62
2022/03/06 03:14:23;;;;;;;9.30;8.03;;;3.20;99.90;;;2.97;75.61;94533.53;4990274;28;21001;-55
2022/03/06 03:16:50;;;;;;;8.23;7.43;;;3.20;99.90;;;2.98;75.50;94548.19;4990603;28;20827;-59
2022/03/06 03:19:18;;;;;;;9.33;7.97;;;3.20;99.90;;;2.99;74.72;94530.81;4992111;28;20458;-54
2022/03/06 03:21:46;;;;;;;9.87;8.37;;;3.20;99.90;;;2.96;74.18;94539.66;4990347;28;20998;-62
2022/03/06 03:24:13;;;;;;;10.97;8.70;;;3.20;99.90;;;2.93;74.45;94544.22;4992160;28;20446;-56
2022/03/06 03:26:41;;;;;;;8.53;7.73;;;3.20;99.90;;;2.90;74.46;94541.81;4992215;28;20822;-61
2022/03/06 03:29:08;;;;;;;9.00;8.10;;;3.10;99.90;;;2.87;75.20;94541.09;4989565;28;20509;-62
2022/03/06 03:31:37;;;;;;;8.10;7.30;;;3.10;99.90;;;2.86;76.43;94533.41;4992665;28;20490;-55
2022/03/06 03:34:04;;;;;;;8.83;7.93;;;3.10;99.90;;;2.85;75.04;94550.78;5003131;28;20453;-55
2022/03/06 03:36:31;;;;;;;7.93;7.17;;;3.10;99.90;;;2.83;75.59;94541.41;5002521;28;20474;-53
2022/03/06 03:38:58;;;;;;;9.00;8.07;;;3.10;99.90;;;2.83;75.61;94533.59;4995621;28;20454;-61
2022/03/06 03:41:26;;;;;;;8.37;7.50;;;3.00;99.90;;;2.81;75.90;94535.50;4998021;28;20470;-63
2022/03/06 03:43:53;;;;;;;8.70;7.80;;;3.10;99.90;;;2.80;75.91;94537.22;5000210;28;20475;-63
2022/03/06 03:46:21;;;;;;;8.27;7.30;;;3.00;99.90;;;2.78;75.17;94536.50;4996973;28;20490;-59
2022/03/06 03:48:50;;;;;;;8.33;7.40;;;3.00;99.90;;;2.76;75.72;94547.91;4991085;28;20466;-60
2022/03/06 03:51:17;;;;;;;7.73;7.03;;;3.00;99.90;;;2.74;75.65;94537.63;5000914;28;20492;-55
2022/03/06 03:53:44;;;;;;;7.73;6.93;;;3.00;99.90;;;2.70;75.42;94541.38;5000433;28;20457;-55
2022/03/06 03:56:11;;;;;;;8.10;7.37;;;3.00;99.90;;;2.68;76.33;94538.03;4995065;28;20492;-62
2022/03/06 03:58:39;;;;;;;7.43;6.57;;;2.90;99.90;;;2.66;76.55;94545.94;4995202;28;20484;-60
2022/03/06 04:01:06;;;;;;;8.07;7.13;;;2.90;99.90;;;2.65;75.19;94557.25;4992045;28;20499;-55
2022/03/06 04:03:33;;;;;;;7.57;6.80;;;2.90;99.90;;;2.63;75.51;94540.97;4999738;28;20454;-54
2022/03/06 04:06:02;;;;;;;6.40;5.83;;;2.90;99.90;;;2.62;76.09;94543.66;4990460;28;20855;-60
2022/03/06 04:08:29;;;;;;;8.33;6.57;;;2.90;99.90;;;2.61;76.28;94547.19;4996673;28;20500;-55
2022/03/06 04:10:59;;;;;;;7.77;7.00;;;2.90;99.90;;;2.60;76.27;94540.31;4993342;28;20478;-57
2022/03/06 04:13:26;;;;;;;6.53;5.97;;;2.90;99.90;;;2.60;75.78;94561.94;4994575;28;20455;-54
2022/03/06 04:15:54;;;;;;;7.33;6.63;;;2.90;99.90;;;2.59;75.80;94549.06;4992652;28;20478;-53
2022/03/06 04:18:21;;;;;;;6.83;6.13;;;2.80;99.90;;;2.57;77.08;94543.09;4991971;28;20451;-63
2022/03/06 04:20:48;;;;;;;8.13;6.33;;;2.80;99.90;;;2.58;76.46;94552.56;4988875;28;20478;-60
2022/03/06 04:23:17;;;;;;;6.10;5.60;;;2.80;99.90;;;2.54;77.23;94543.31;4991440;28;20979;-55
2022/03/06 04:25:44;;;;;;;6.47;5.97;;;2.80;99.90;;;2.52;76.59;94553.78;4996137;28;20467;-60
2022/03/06 04:28:11;;;;;;;6.23;5.63;;;2.80;99.90;;;2.50;76.87;94545.28;5003927;28;20454;-60
2022/03/06 04:30:39;;;;;;;6.87;6.17;;;2.80;99.90;;;2.51;76.72;94542.59;4997236;28;20979;-54
2022/03/06 04:33:06;;;;;;;6.63;5.83;;;2.80;99.90;;;2.51;76.83;94552.97;4997749;28;20962;-56
2022/03/06 04:35:34;;;;;;;6.20;5.67;;;2.70;99.90;;;2.50;76.82;94540.91;4999599;28;20472;-61
2022/03/06 04:38:01;;;;;;;5.40;5.00;;;2.80;99.90;;;2.46;76.23;94549.84;4996460;28;20459;-56
2022/03/06 04:40:30;;;;;;;6.23;5.67;;;2.70;99.90;;;2.46;76.57;94549.84;4996390;28;20486;-54
2022/03/06 04:42:57;;;;;;;5.73;5.27;;;2.70;99.90;;;2.47;76.77;94558.44;4995268;28;20458;-61
2022/03/06 04:45:26;;;;;;;10.50;5.33;;;2.70;99.90;;;2.47;76.99;94556.69;4991272;28;20447;-60
2022/03/06 04:47:54;;;;;;;5.90;5.40;;;2.70;99.90;;;2.47;77.23;94561.88;4996254;28;20493;-62
2022/03/06 04:50:21;;;;;;;6.30;5.80;;;2.70;99.90;;;2.47;77.07;94556.69;4998942;28;20544;-55
2022/03/06 04:52:48;;;;;;;5.07;4.67;;;2.70;99.90;;;2.44;77.27;94564.66;4992755;28;20493;-54
2022/03/06 04:55:15;;;;;;;5.10;4.67;;;2.70;99.90;;;2.41;76.52;94546.69;4995534;28;20451;-56
2022/03/06 04:57:46;;;;;;;5.67;5.17;;;2.60;99.90;;;2.41;76.19;94556.25;4992087;28;20487;-60
2022/03/06 05:00:15;;;;;;;5.77;5.27;;;2.60;99.90;;;2.37;77.90;94542.66;4993652;28;20454;-62
2022/03/06 05:02:42;;;;;;;5.50;5.00;;;2.60;99.90;;;2.36;77.31;94559.13;4991557;28;20477;-61
2022/03/06 05:05:10;;;;;;;5.83;5.33;;;2.60;99.90;;;2.36;77.23;94547.94;4988094;28;20455;-56
2022/03/06 05:07:37;;;;;;;5.70;5.20;;;2.60;99.90;;;2.35;77.44;94541.06;4992546;28;21073;-56
2022/03/06 05:10:09;;;;;;;5.83;5.27;;;2.60;99.90;;;2.32;77.11;94558.50;4989437;28;20459;-61
2022/03/06 05:12:36;;;;;;;6.17;5.57;;;2.60;99.90;;;2.31;76.82;94545.63;4989661;28;20592;-60
2022/03/06 05:15:06;;;;;;;5.73;5.23;;;2.60;99.90;;;2.30;76.74;94547.38;4991359;28;20497;-60
2022/03/06 05:17:33;;;;;;;6.87;5.60;;;2.60;99.90;;;2.30;77.94;94541.38;4999166;28;20470;-56
2022/03/06 05:20:00;;;;;;;5.33;4.80;;;2.60;99.90;;;2.30;77.66;94539.59;4998040;28;20445;-54
2022/03/06 05:22:28;;;;;;;5.50;5.00;;;2.60;99.90;;;2.31;76.74;94543.84;5002888;28;20484;-62
2022/03/06 05:24:57;;;;;;;5.73;5.23;;;2.60;99.90;;;2.30;77.45;94544.78;5002564;28;20460;-62
2022/03/06 05:27:25;;;;;;;5.73;5.20;;;2.60;99.90;;;2.31;76.87;94553.41;4995604;28;20493;-56
2022/03/06 05:29:52;;;;;;;5.80;5.30;;;2.50;99.90;;;2.32;76.87;94565.44;4998707;28;20451;-55
2022/03/06 05:32:21;;;;;;;5.60;5.10;;;2.60;99.90;;;2.32;77.11;94561.09;4995099;28;20491;-56
2022/03/06 05:34:48;;;;;;;8.03;5.10;;;2.60;99.90;;;2.32;77.06;94565.44;4990747;28;21032;-56
2022/03/06 05:37:16;;;;;;;6.17;5.63;;;2.60;99.90;;;2.31;77.87;94564.63;4997447;28;20473;-62
2022/03/06 05:39:43;;;;;;;6.10;5.50;;;2.60;99.90;;;2.30;77.81;94564.72;4994865;28;20841;-58
2022/03/06 05:42:11;;;;;;;5.43;4.97;;;2.60;99.90;;;2.31;77.76;94566.41;4993449;28;20474;-62
2022/03/06 05:44:38;;;;;;;6.53;5.93;;;2.60;99.90;;;2.32;78.06;94562.84;4989758;28;20466;-61
2022/03/06 05:47:06;;;;;;;5.70;5.20;;;2.60;99.90;;;2.32;76.93;94578.41;4992632;28;20558;-61
2022/03/06 05:49:34;;;;;;;7.30;6.40;;;2.60;99.90;;;2.30;76.72;94559.53;4991236;28;20459;-63
2022/03/06 05:52:03;;;;;;;6.73;6.07;;;2.60;99.90;;;2.30;78.39;94564.72;4991975;28;20478;-56
2022/03/06 05:54:31;;;;;;;5.70;5.17;;;2.50;99.90;;;2.32;77.44;94576.69;4991072;28;20457;-62
2022/03/06 05:56:58;;;;;;;4.83;4.50;;;2.60;99.90;;;2.32;76.75;94568.03;4988099;28;20814;-62
2022/03/06 05:59:26;;;;;;;6.17;5.67;;;2.60;99.90;;;2.34;76.98;94571.38;4991088;28;20447;-56
2022/03/06 06:01:53;;;;;;;7.17;5.77;;;2.60;99.90;;;2.36;77.63;94564.31;4988221;28;20661;-56
2022/03/06 06:04:20;;;;;;;6.50;5.90;;;2.60;99.90;;;2.37;77.54;94570.34;4985255;28;20454;-61
2022/03/06 06:06:49;;;;;;;5.43;5.03;;;2.60;99.90;;;2.38;77.21;94579.81;4994089;28;20494;-61
2022/03/06 06:09:16;;;;;;;6.23;5.63;;;2.60;99.90;;;2.37;77.31;94580.72;5004762;28;20457;-57
2022/03/06 06:11:44;;;;;;;6.23;5.63;;;2.60;99.90;;;2.37;77.98;94584.16;4992130;28;20478;-62
2022/03/06 06:14:12;;;;;;;6.60;5.97;;;2.60;99.90;;;2.37;77.20;94591.97;4992453;28;20499;-62
2022/03/06 06:16:39;;;;;;;6.13;5.53;;;2.60;99.90;;;2.36;77.52;94595.47;4989175;28;20601;-55
2022/03/06 06:19:06;;;;;;;5.90;5.40;;;2.60;99.90;;;2.36;77.38;94592.06;4992096;28;20770;-56
2022/03/06 06:21:34;;;;;;;5.83;5.33;;;2.60;99.90;;;2.35;77.55;94588.59;4991961;28;20498;-62
2022/03/06 06:24:04;;;;;;;8.17;5.20;;;2.60;99.90;;;2.39;76.79;94577.09;4987742;28;20602;-56
2022/03/06 06:26:31;;;;;;;6.40;5.87;;;2.60;99.90;;;2.40;77.83;94578.78;4995148;28;20497;-55
2022/03/06 06:29:00;;;;;;;5.53;5.00;;;2.70;99.90;;;2.40;77.18;94576.19;4991683;28;20447;-54
2022/03/06 06:31:27;;;;;;;5.73;5.20;;;2.70;99.90;;;2.41;76.88;94588.22;4991788;28;20466;-59
2022/03/06 06:33:55;;;;;;;5.83;5.33;;;2.70;99.90;;;2.44;77.30;94579.41;4994434;28;20482;-61
2022/03/06 06:36:22;;;;;;;6.53;5.63;;;2.70;99.90;;;2.48;77.04;94583.50;4989419;28;20557;-56
2022/03/06 06:38:50;;;;;;;6.20;5.23;;;2.70;99.90;;;2.51;77.88;94578.91;4992404;28;20453;-60
2022/03/06 06:41:21;;;;;;;7.20;6.33;;;2.80;99.90;;;2.51;76.99;94597.09;4986556;28;20478;-56
2022/03/06 06:43:48;;;;;;;7.07;5.67;;;2.80;99.90;;;2.49;76.87;94585.13;4989411;28;20455;-57
2022/03/06 06:46:15;;;;;;;20.50;6.10;;;2.70;99.90;;;2.47;77.31;94597.38;4990364;28;20477;-63
2022/03/06 06:48:44;;;;;;;7.17;5.90;;;2.70;99.90;;;2.44;77.75;94602.78;4987442;28;21041;-56
2022/03/06 06:51:11;;;;;;;7.53;4.40;;;2.70;99.90;;;2.39;78.30;94610.84;4990232;28;20825;-61
2022/03/06 06:53:38;;;;;;;6.30;4.77;;;2.70;99.90;;;2.32;78.13;94599.19;4988079;28;20451;-61
2022/03/06 06:56:08;;;;;;;6.10;5.10;;;2.60;99.90;;;2.31;78.13;94600.13;4986244;28;20498;-61
2022/03/06 06:58:36;;;;;;;9.23;4.90;;;2.60;99.90;;;2.30;77.50;94598.44;4994920;28;20456;-56
2022/03/06 07:01:04;;;;;;;6.00;4.77;;;2.60;99.90;;;2.32;77.74;94622.53;4997156;28;20832;-55
2022/03/06 07:03:32;;;;;;;4.97;4.50;;;2.60;99.90;;;2.32;78.06;94599.19;4993544;28;20959;-61
2022/03/06 07:05:59;;;;;;;6.63;5.50;;;2.60;99.90;;;2.35;78.52;94600.75;4995267;28;20533;-55
2022/03/06 07:08:27;;;;;;;8.60;5.70;;;2.60;99.90;;;2.37;78.40;94597.16;4999267;28;20507;-56
2022/03/06 07:10:54;;;;;;;6.17;5.57;;;2.60;99.90;;;2.42;78.12;94610.66;4998606;28;20470;-61
2022/03/06 07:13:21;;;;;;;11.13;6.33;;;2.70;99.90;;;2.48;79.08;94606.84;5000839;28;20474;-56
2022/03/06 07:15:50;;;;;;;7.03;5.57;;;2.70;99.90;;;2.54;77.98;94616.84;4994482;28;20482;-61
2022/03/06 07:18:17;;;;;;;6.63;5.97;;;2.70;99.90;;;2.58;78.04;94614.88;4997268;28;20447;-62
2022/03/06 07:20:45;;;;;;;8.23;6.07;;;2.80;99.90;;;2.61;77.75;94615.50;4995350;28;20478;-56
2022/03/06 07:23:12;;;;;;;8.60;6.53;;;2.80;99.90;;;2.66;78.07;94613.44;4997009;28;20480;-60
2022/03/06 07:25:39;;;;;;;6.43;5.67;;;2.90;99.90;;;2.71;77.27;94589.78;4995977;28;20455;-59
2022/03/06 07:28:06;;;;;;;8.57;5.80;;;2.90;99.90;;;2.76;76.75;94607.66;4996487;28;20488;-60
2022/03/06 07:30:34;;;;;;;10.27;7.00;;;3.00;99.90;;;2.79;76.66;94603.09;4989475;28;20826;-57
2022/03/06 07:33:03;;;;;;;11.77;6.50;;;3.00;99.90;;;2.80;76.59;94601.34;4989489;28;20461;-60
2022/03/06 07:35:30;;;;;;;10.07;6.00;;;3.00;99.90;;;2.80;76.51;94607.34;4994265;28;20597;-55
2022/03/06 07:37:58;;;;;;;6.83;5.40;;;3.00;99.90;;;2.82;76.73;94607.25;4993546;28;20450;-62
2022/03/06 07:40:26;;;;;;;6.60;5.57;;;3.10;99.90;;;2.81;76.30;94606.44;4989669;28;20902;-61
2022/03/06 07:42:53;;;;;;;7.33;6.53;;;3.10;99.90;;;2.83;76.55;94609.75;4988298;28;20461;-55
2022/03/06 07:45:20;;;;;;;8.17;6.33;;;3.10;99.90;;;2.87;77.35;94611.22;4987722;28;20457;-57
2022/03/06 07:47:48;;;;;;;12.43;6.90;;;3.10;99.90;;;2.90;76.54;94617.16;4992675;28;20498;-56
2022/03/06 07:50:16;;;;;;;6.00;5.50;;;3.10;99.90;;;2.90;76.74;94630.13;4992129;28;20475;-61
2022/03/06 07:52:44;;;;;;;6.93;6.23;;;3.10;99.90;;;2.87;76.81;94626.81;4998275;28;20481;-55
2022/03/06 07:55:11;;;;;;;8.20;6.30;;;3.10;99.90;;;2.87;76.04;94631.19;5004248;28;20449;-58
2022/03/06 07:57:39;;;;;;;8.67;6.37;;;3.10;99.90;;;2.86;76.54;94630.34;4989141;28;20633;-61
2022/03/06 08:00:09;;;;;;;7.67;6.23;;;3.10;99.90;;;2.87;76.62;94620.78;5002237;28;20450;-56
2022/03/06 08:02:36;;;;;;;7.10;6.37;;;3.10;99.90;;;2.87;76.69;94626.81;4993712;28;20465;-57
2022/03/06 08:05:04;;;;;;;8.87;7.03;;;3.10;99.90;;;2.89;75.88;94628.50;4995595;28;20464;-62
2022/03/06 08:07:33;;;;;;;12.07;7.27;;;3.10;99.90;;;2.89;75.33;94631.91;4991501;28;20498;-60
2022/03/06 08:10:00;;;;;;;7.33;6.50;;;3.10;99.90;;;2.86;75.89;94632.94;4995684;28;20454;-61
2022/03/06 08:12:27;;;;;;;8.47;6.57;;;3.10;99.90;;;2.86;76.12;94639.91;4998238;28;20472;-61
2022/03/06 08:14:55;;;;;;;9.87;7.00;;;3.10;99.90;;;2.89;76.08;94644.06;5000515;28;21754;-54
2022/03/06 08:17:22;;;;;;;8.70;6.80;;;3.10;99.90;;;2.90;76.10;94641.38;4996083;28;20490;-55
2022/03/06 08:19:49;;;;;;;7.10;6.27;;;3.10;99.90;;;2.91;76.60;94647.41;4992695;28;20447;-57
2022/03/06 08:22:17;;;;;;;7.80;5.77;;;3.20;99.90;;;2.93;75.72;94646.38;4998770;28;20505;-57
2022/03/06 08:24:46;;;;;;;6.70;6.17;;;3.20;99.90;;;2.94;76.12;94637.63;4995996;28;20451;-62
2022/03/06 08:27:13;;;;;;;7.47;6.50;;;3.20;99.90;;;2.96;76.06;94632.34;4990199;28;20473;-63
2022/03/06 08:29:40;;;;;;;9.03;6.50;;;3.20;99.90;;;2.97;76.67;94639.22;4994761;28;20458;-56
2022/03/06 08:32:09;;;;;;;10.07;6.33;;;3.20;99.90;;;2.97;75.78;94623.63;4992324;28;20891;-61
2022/03/06 08:34:36;;;;;;;8.50;6.30;;;3.20;99.90;;;2.99;75.57;94620.00;4990344;28;20544;-61
2022/03/06 08:37:05;;;;;;;6.43;5.50;;;3.20;99.90;;;3.02;76.39;94618.94;4990616;28;20466;-56
2022/03/06 08:39:32;;;;;;;8.57;6.43;;;3.20;99.90;;;3.02;75.70;94625.00;4992550;28;20839;-61
2022/03/06 08:42:00;;;;;;;8.57;6.60;;;3.20;99.90;;;3.01;76.34;94614.69;4990741;28;20479;-55
2022/03/06 08:44:28;;;;;;;9.27;7.00;;;3.30;99.90;;;3.05;75.81;94613.53;4998714;28;20540;-56
2022/03/06 08:46:55;;;;;;;9.67;7.27;;;3.30;99.90;;;3.07;75.15;94606.50;4995172;28;20469;-62
2022/03/06 08:49:22;;;;;;;7.27;6.37;;;3.30;99.90;;;3.08;74.96;94597.75;4996889;28;20574;-63
2022/03/06 08:51:50;;;;;;;11.53;6.97;;;3.30;99.90;;;3.12;75.67;94590.63;4997641;28;20486;-55
2022/03/06 08:54:17;;;;;;;8.33;6.87;;;3.30;99.90;;;3.15;75.54;94599.03;4992223;28;20458;-63
2022/03/06 08:56:44;;;;;;;9.10;7.30;;;3.40;99.90;;;3.20;75.18;94607.34;4995249;28;20482;-62
2022/03/06 08:59:13;;;;;;;9.10;6.67;;;3.40;99.90;;;3.29;75.64;94602.50;5000271;28;20461;-60
2022/03/06 09:01:40;;;;;;;7.33;6.60;;;3.50;99.90;;;3.40;74.97;94602.59;4997933;28;20463;-61
2022/03/06 09:04:08;;;;;;;8.23;6.43;;;3.60;99.90;;;3.51;74.74;94605.28;4992106;28;20470;-61
2022/03/06 09:06:35;;;;;;;8.27;6.57;;;3.70;99.90;;;3.59;74.69;94605.63;5000884;28;20470;-62
2022/03/06 09:09:02;;;;;;;11.90;7.80;;;3.80;99.90;;;3.64;74.33;94597.50;4998570;28;20500;-62
2022/03/06 09:11:29;;;;;;;10.80;7.90;;;3.80;99.90;;;3.69;75.05;94592.00;4996262;28;20478;-55
2022/03/06 09:13:58;;;;;;;12.23;7.50;;;3.90;99.90;;;3.69;74.28;94612.81;4991860;28;20453;-61
2022/03/06 09:16:27;;;;;;;8.20;6.23;;;3.90;99.90;;;3.66;74.16;94610.41;4995979;28;20485;-62
2022/03/06 09:18:54;;;;;;;6.67;5.97;;;3.90;99.90;;;3.66;73.90;94602.59;4993538;28;20455;-56
2022/03/06 09:21:22;;;;;;;6.30;5.70;;;3.90;99.90;;;3.65;73.54;94613.94;4990134;28;20553;-56
2022/03/06 09:23:49;;;;;;;8.47;6.30;;;3.90;99.90;;;3.66;73.92;94618.22;4990733;28;20830;-56
2022/03/06 09:26:16;;;;;;;7.43;5.70;;;3.90;99.90;;;3.65;74.09;94613.94;4991045;28;20479;-62
2022/03/06 09:28:43;;;;;;;10.80;5.10;;;3.90;99.90;;;3.62;73.47;94617.56;4991168;28;20498;-55
2022/03/06 09:31:11;;;;;;;6.07;5.17;;;3.80;99.90;;;3.58;73.91;94622.16;4988929;28;20486;-62
2022/03/06 09:33:39;;;;;;;7.03;4.87;;;3.80;99.90;;;3.56;74.04;94624.03;4990984;28;20522;-56
2022/03/06 09:36:07;;;;;;;6.47;5.67;;;3.80;99.90;;;3.52;73.87;94638.16;5004462;28;20482;-62
2022/03/06 09:38:34;;;;;;;7.40;5.00;;;3.70;99.90;;;3.52;73.39;94626.94;4999736;28;20453;-61
2022/03/06 09:41:04;;;;;;;5.90;5.17;;;3.80;99.90;;;3.49;73.38;94614.16;5004754;28;20475;-60
2022/03/06 09:43:33;;;;;;;5.30;4.80;;;3.70;99.90;;;3.47;73.58;94614.25;5001747;28;20458;-62
2022/03/06 09:46:06;;;;;;;4.37;4.03;;;3.70;99.90;;;3.44;73.90;94608.41;4997706;28;20817;-63
2022/03/06 09:48:33;;;;;;;4.53;3.80;;;3.70;99.90;;;3.39;73.58;94604.38;5004653;28;21044;-57
2022/03/06 09:51:03;;;;;;;4.50;4.17;;;3.60;99.90;;;3.36;73.08;94608.91;4992052;28;20779;-56
2022/03/06 09:53:31;;;;;;;3.60;3.30;;;3.70;99.90;;;3.38;73.65;94615.69;4993504;28;20861;-62
2022/03/06 09:55:58;;;;;;;4.30;4.00;;;3.60;99.90;;;3.36;73.49;94595.91;4996178;28;20484;-60
2022/03/06 09:58:26;;;;;;;4.63;4.17;;;3.60;99.90;;;3.37;74.18;94606.22;4998350;28;21041;-63
2022/03/06 10:00:54;;;;;;;4.93;4.47;;;3.60;99.90;;;3.39;73.33;94626.91;4997584;28;20546;-61
2022/03/06 10:03:23;;;;;;;5.07;4.60;;;3.60;99.90;;;3.41;73.68;94638.88;4992769;28;20450;-56
2022/03/06 10:05:50;;;;;;;5.47;4.03;;;3.60;99.90;;;3.43;73.25;94632.75;4997541;28;20466;-54
2022/03/06 10:08:24;;;;;;;5.73;5.07;;;3.70;99.90;;;3.44;72.84;94632.66;4995678;28;20504;-62
2022/03/06 10:10:54;;;;;;;5.07;4.57;;;3.70;99.90;;;3.41;73.09;94635.47;4995870;28;20500;-56
2022/03/06 10:13:25;;;;;;;5.07;4.23;;;3.60;99.90;;;3.34;72.83;94634.19;4990848;28;20454;-56
2022/03/06 10:16:00;;;;;;;6.70;4.93;;;3.60;99.90;;;3.35;73.52;94630.66;4991754;28;20482;-62
2022/03/06 10:18:30;;;;;;;6.50;4.73;;;3.60;99.90;;;3.33;73.05;94624.72;4991996;28;20450;-63
2022/03/06 10:21:11;;;;;;;5.03;4.53;;;3.60;99.90;;;3.31;73.39;94626.59;4991721;28;20502;-55
2022/03/06 10:23:40;;;;;;;4.20;3.80;;;3.50;99.90;;;3.31;72.77;94642.19;4988629;28;20521;-60
2022/03/06 10:26:10;;;;;;;4.67;4.30;;;3.50;99.90;;;3.26;72.28;94632.09;4994445;28;20532;-63
2022/03/06 10:28:48;;;;;;;5.03;4.53;;;3.50;99.90;;;3.22;73.78;94635.81;5001255;28;21041;-62
2022/03/06 10:31:16;;;;;;;6.50;4.70;;;3.50;99.90;;;3.21;72.74;94639.38;4999402;28;20477;-57
2022/03/06 10:34:05;;;;;;;5.60;4.70;;;3.40;99.90;;;3.19;72.84;94642.09;5001293;28;20485;-57
2022/03/06 10:36:40;;;;;;;5.50;5.00;;;3.40;99.90;;;3.21;72.31;94623.78;4995950;28;20474;-65